sensor_id;sensor_type;location;lat;lon;timestamp;pressure;altitude;pressure_sealevel;temperature;humidity
54978;BME280;40873;47.522;19.106;2023-09-07T00:00:53;101053.25;;;17.01;100.00
54978;BME280;40873;47.522;19.106;2023-09-07T00:03:35;101047.41;;;16.96;100.00
54978;BME280;40873;47.522;19.106;2023-09-07T00:06:08;101054.22;;;17.00;100.00
54978;BME280;40873;47.522;19.106;2023-09-07T00:08:36;101052.13;;;17.04;100.00
54978;BME280;40873;47.522;19.106;2023-09-07T00:11:06;101050.56;;;17.01;100.00
54978;BME280;40873;47.522;19.106;2023-09-07T00:13:37;101055.88;;;16.90;100.00
54978;BME280;40873;47.522;19.106;2023-09-07T00:16:07;101050.06;;;16.96;100.00
54978;BME280;40873;47.522;19.106;2023-09-07T00:18:36;101046.78;;;16.92;100.00
54978;BME280;40873;47.522;19.106;2023-09-07T00:21:03;101053.09;;;16.91;100.00
54978;BME280;40873;47.522;19.106;2023-09-07T00:23:30;101052.91;;;16.82;100.00
54978;BME280;40873;47.522;19.106;2023-09-07T00:25:58;101055.19;;;16.75;100.00
54978;BME280;40873;47.522;19.106;2023-09-07T00:28:25;101041.41;;;16.70;100.00
54978;BME280;40873;47.522;19.106;2023-09-07T00:30:54;101055.13;;;16.64;100.00
54978;BME280;40873;47.522;19.106;2023-09-07T00:33:22;101044.47;;;16.64;100.00
54978;BME280;40873;47.522;19.106;2023-09-07T00:35:51;101047.75;;;16.67;100.00
54978;BME280;40873;47.522;19.106;2023-09-07T00:38:19;101043.63;;;16.63;100.00
54978;BME280;40873;47.522;19.106;2023-09-07T00:40:46;101056.56;;;16.57;100.00
54978;BME280;40873;47.522;19.106;2023-09-07T00:43:13;101051.88;;;16.48;100.00
54978;BME280;40873;47.522;19.106;2023-09-07T00:45:42;101049.34;;;16.46;100.00
54978;BME280;40873;47.522;19.106;2023-09-07T00:48:12;101046.06;;;16.42;100.00
54978;BME280;40873;47.522;19.106;2023-09-07T00:50:43;101042.66;;;16.40;100.00
54978;BME280;40873;47.522;19.106;2023-09-07T00:53:11;101045.56;;;16.37;100.00
54978;BME280;40873;47.522;19.106;2023-09-07T00:55:41;101041.19;;;16.36;100.00
54978;BME280;40873;47.522;19.106;2023-09-07T00:58:08;101045.03;;;16.32;100.00
54978;BME280;40873;47.522;19.106;2023-09-07T01:00:39;101046.66;;;16.35;100.00
54978;BME280;40873;47.522;19.106;2023-09-07T01:03:07;101038.47;;;16.25;100.00
54978;BME280;40873;47.522;19.106;2023-09-07T01:05:53;101046.31;;;16.27;100.00
54978;BME280;40873;47.522;19.106;2023-09-07T01:08:46;101048.59;;;16.20;100.00
54978;BME280;40873;47.522;19.106;2023-09-07T01:11:19;101038.81;;;16.21;100.00
54978;BME280;40873;47.522;19.106;2023-09-07T01:13:53;101045.91;;;16.20;100.00
54978;BME280;40873;47.522;19.106;2023-09-07T01:16:21;101049.06;;;16.14;100.00
54978;BME280;40873;47.522;19.106;2023-09-07T01:18:49;101046.59;;;16.11;100.00
54978;BME280;40873;47.522;19.106;2023-09-07T01:21:20;101040.53;;;16.09;100.00
54978;BME280;40873;47.522;19.106;2023-09-07T01:23:49;101044.38;;;16.05;100.00
54978;BME280;40873;47.522;19.106;2023-09-07T01:26:20;101040.03;;;16.04;100.00
54978;BME280;40873;47.522;19.106;2023-09-07T01:28:47;101038.56;;;16.00;100.00
54978;BME280;40873;47.522;19.106;2023-09-07T01:31:14;101039.16;;;16.03;100.00
54978;BME280;40873;47.522;19.106;2023-09-07T01:33:45;101044.19;;;15.95;100.00
54978;BME280;40873;47.522;19.106;2023-09-07T01:36:15;101043.22;;;15.96;100.00
54978;BME280;40873;47.522;19.106;2023-09-07T01:38:45;101047.06;;;15.92;100.00
54978;BME280;40873;47.522;19.106;2023-09-07T01:41:12;101045.28;;;15.93;100.00
54978;BME280;40873;47.522;19.106;2023-09-07T01:43:43;101046.22;;;15.92;100.00
54978;BME280;40873;47.522;19.106;2023-09-07T01:46:13;101049.97;;;15.89;100.00
54978;BME280;40873;47.522;19.106;2023-09-07T01:48:40;101048.25;;;15.88;100.00
54978;BME280;40873;47.522;19.106;2023-09-07T01:51:09;101048.25;;;15.88;100.00
54978;BME280;40873;47.522;19.106;2023-09-07T01:53:36;101051.47;;;15.80;100.00
54978;BME280;40873;47.522;19.106;2023-09-07T01:56:03;101046.34;;;15.77;100.00
54978;BME280;40873;47.522;19.106;2023-09-07T01:58:31;101046.03;;;15.82;100.00
54978;BME280;40873;47.522;19.106;2023-09-07T02:01:01;101040.81;;;15.80;100.00
54978;BME280;40873;47.522;19.106;2023-09-07T02:03:33;101043.69;;;15.77;100.00
54978;BME280;40873;47.522;19.106;2023-09-07T02:06:03;101048.81;;;15.68;100.00
54978;BME280;40873;47.522;19.106;2023-09-07T02:08:30;101047.84;;;15.69;100.00
54978;BME280;40873;47.522;19.106;2023-09-07T02:10:58;101050.53;;;15.69;100.00
54978;BME280;40873;47.522;19.106;2023-09-07T02:13:25;101044.78;;;15.62;100.00
54978;BME280;40873;47.522;19.106;2023-09-07T02:15:52;101051.16;;;15.59;100.00
54978;BME280;40873;47.522;19.106;2023-09-07T02:18:19;101049.66;;;15.55;100.00
54978;BME280;40873;47.522;19.106;2023-09-07T02:20:46;101044.44;;;15.54;100.00
54978;BME280;40873;47.522;19.106;2023-09-07T02:23:14;101048.19;;;15.51;100.00
54978;BME280;40873;47.522;19.106;2023-09-07T02:25:44;101046.56;;;15.49;100.00
54978;BME280;40873;47.522;19.106;2023-09-07T02:28:13;101045.19;;;15.43;100.00
54978;BME280;40873;47.522;19.106;2023-09-07T02:30:40;101048.28;;;15.37;100.00
54978;BME280;40873;47.522;19.106;2023-09-07T02:33:08;101050.28;;;15.33;100.00
54978;BME280;40873;47.522;19.106;2023-09-07T02:35:38;101043.28;;;15.32;100.00
54978;BME280;40873;47.522;19.106;2023-09-07T02:38:05;101050.19;;;15.35;100.00
54978;BME280;40873;47.522;19.106;2023-09-07T02:40:42;101053.50;;;15.39;100.00
54978;BME280;40873;47.522;19.106;2023-09-07T02:43:10;101049.97;;;15.38;100.00
54978;BME280;40873;47.522;19.106;2023-09-07T02:45:40;101052.84;;;15.35;100.00
54978;BME280;40873;47.522;19.106;2023-09-07T02:48:08;101063.34;;;15.36;100.00
54978;BME280;40873;47.522;19.106;2023-09-07T02:50:38;101056.03;;;15.27;100.00
54978;BME280;40873;47.522;19.106;2023-09-07T02:53:05;101052.41;;;15.28;100.00
54978;BME280;40873;47.522;19.106;2023-09-07T02:55:35;101061.16;;;15.30;100.00
54978;BME280;40873;47.522;19.106;2023-09-07T02:58:03;101059.75;;;15.25;100.00
54978;BME280;40873;47.522;19.106;2023-09-07T03:00:30;101055.72;;;15.19;100.00
54978;BME280;40873;47.522;19.106;2023-09-07T03:02:57;101058.25;;;15.21;100.00
54978;BME280;40873;47.522;19.106;2023-09-07T03:05:27;101057.72;;;15.16;100.00
54978;BME280;40873;47.522;19.106;2023-09-07T03:07:55;101061.31;;;15.15;100.00
54978;BME280;40873;47.522;19.106;2023-09-07T03:10:24;101053.34;;;15.15;100.00
54978;BME280;40873;47.522;19.106;2023-09-07T03:12:51;101056.97;;;15.14;100.00
54978;BME280;40873;47.522;19.106;2023-09-07T03:15:19;101056.00;;;15.15;100.00
54978;BME280;40873;47.522;19.106;2023-09-07T03:17:46;101060.38;;;15.16;100.00
54978;BME280;40873;47.522;19.106;2023-09-07T03:20:14;101063.13;;;15.14;100.00
54978;BME280;40873;47.522;19.106;2023-09-07T03:22:47;101057.94;;;15.13;100.00
54978;BME280;40873;47.522;19.106;2023-09-07T03:25:17;101059.31;;;15.18;100.00
54978;BME280;40873;47.522;19.106;2023-09-07T03:27:44;101057.63;;;15.17;100.00
54978;BME280;40873;47.522;19.106;2023-09-07T03:30:11;101059.50;;;15.15;100.00
54978;BME280;40873;47.522;19.106;2023-09-07T03:32:40;101062.50;;;15.11;100.00
54978;BME280;40873;47.522;19.106;2023-09-07T03:35:11;101061.00;;;15.06;100.00
54978;BME280;40873;47.522;19.106;2023-09-07T03:37:38;101066.84;;;14.99;100.00
54978;BME280;40873;47.522;19.106;2023-09-07T03:40:05;101061.63;;;14.97;100.00
54978;BME280;40873;47.522;19.106;2023-09-07T03:42:35;101067.97;;;14.95;100.00
54978;BME280;40873;47.522;19.106;2023-09-07T03:45:03;101064.59;;;14.93;100.00
54978;BME280;40873;47.522;19.106;2023-09-07T03:47:33;101066.94;;;14.97;100.00
54978;BME280;40873;47.522;19.106;2023-09-07T03:50:00;101065.53;;;14.92;100.00
54978;BME280;40873;47.522;19.106;2023-09-07T03:52:27;101060.44;;;14.89;100.00
54978;BME280;40873;47.522;19.106;2023-09-07T03:54:55;101060.63;;;14.86;100.00
54978;BME280;40873;47.522;19.106;2023-09-07T03:57:24;101061.50;;;14.86;100.00
54978;BME280;40873;47.522;19.106;2023-09-07T03:59:52;101062.25;;;14.88;100.00
54978;BME280;40873;47.522;19.106;2023-09-07T04:02:22;101069.56;;;14.85;100.00
54978;BME280;40873;47.522;19.106;2023-09-07T04:04:51;101071.47;;;14.83;100.00
54978;BME280;40873;47.522;19.106;2023-09-07T04:07:18;101071.47;;;14.83;100.00
54978;BME280;40873;47.522;19.106;2023-09-07T04:09:45;101068.81;;;14.83;100.00
54978;BME280;40873;47.522;19.106;2023-09-07T04:12:13;101073.59;;;14.77;100.00
54978;BME280;40873;47.522;19.106;2023-09-07T04:14:40;101077.09;;;14.78;100.00
54978;BME280;40873;47.522;19.106;2023-09-07T04:17:08;101079.00;;;14.76;100.00
54978;BME280;40873;47.522;19.106;2023-09-07T04:19:36;101065.72;;;14.76;100.00
54978;BME280;40873;47.522;19.106;2023-09-07T04:22:03;101081.56;;;14.77;100.00
54978;BME280;40873;47.522;19.106;2023-09-07T04:24:34;101086.13;;;14.75;100.00
54978;BME280;40873;47.522;19.106;2023-09-07T04:27:01;101082.81;;;14.72;100.00
54978;BME280;40873;47.522;19.106;2023-09-07T04:29:28;101081.66;;;14.76;100.00
54978;BME280;40873;47.522;19.106;2023-09-07T04:32:00;101090.88;;;14.70;100.00
54978;BME280;40873;47.522;19.106;2023-09-07T04:34:27;101088.34;;;14.69;100.00
54978;BME280;40873;47.522;19.106;2023-09-07T04:36:54;101085.47;;;14.72;100.00
54978;BME280;40873;47.522;19.106;2023-09-07T04:39:21;101093.13;;;14.76;100.00
54978;BME280;40873;47.522;19.106;2023-09-07T04:41:48;101092.63;;;14.84;100.00
54978;BME280;40873;47.522;19.106;2023-09-07T04:44:15;101092.63;;;14.84;100.00
54978;BME280;40873;47.522;19.106;2023-09-07T04:46:42;101092.41;;;14.87;100.00
54978;BME280;40873;47.522;19.106;2023-09-07T04:49:12;101085.22;;;14.89;100.00
54978;BME280;40873;47.522;19.106;2023-09-07T04:51:39;101089.34;;;14.93;100.00
54978;BME280;40873;47.522;19.106;2023-09-07T04:54:08;101084.59;;;14.98;100.00
54978;BME280;40873;47.522;19.106;2023-09-07T04:56:36;101090.34;;;15.05;100.00
54978;BME280;40873;47.522;19.106;2023-09-07T04:59:04;101080.16;;;15.12;100.00
54978;BME280;40873;47.522;19.106;2023-09-07T05:01:31;101094.00;;;15.17;100.00
54978;BME280;40873;47.522;19.106;2023-09-07T05:03:59;101096.53;;;15.18;100.00
54978;BME280;40873;47.522;19.106;2023-09-07T05:06:26;101091.84;;;15.22;100.00
54978;BME280;40873;47.522;19.106;2023-09-07T05:08:53;101091.53;;;15.26;100.00
54978;BME280;40873;47.522;19.106;2023-09-07T05:11:20;101095.25;;;15.36;100.00
54978;BME280;40873;47.522;19.106;2023-09-07T05:13:47;101096.53;;;15.44;100.00
54978;BME280;40873;47.522;19.106;2023-09-07T05:16:14;101103.78;;;15.54;100.00
54978;BME280;40873;47.522;19.106;2023-09-07T05:18:42;101106.16;;;15.59;100.00
54978;BME280;40873;47.522;19.106;2023-09-07T05:21:14;101102.88;;;15.68;100.00
54978;BME280;40873;47.522;19.106;2023-09-07T05:23:46;101095.19;;;15.76;100.00
54978;BME280;40873;47.522;19.106;2023-09-07T05:26:13;101099.00;;;15.85;100.00
54978;BME280;40873;47.522;19.106;2023-09-07T05:28:40;101105.28;;;15.97;100.00
54978;BME280;40873;47.522;19.106;2023-09-07T05:31:14;101102.94;;;16.05;100.00
54978;BME280;40873;47.522;19.106;2023-09-07T05:33:41;101103.16;;;16.14;100.00
54978;BME280;40873;47.522;19.106;2023-09-07T05:36:08;101105.03;;;16.25;100.00
54978;BME280;40873;47.522;19.106;2023-09-07T05:38:35;101095.31;;;16.37;100.00
54978;BME280;40873;47.522;19.106;2023-09-07T05:41:03;101106.03;;;16.48;100.00
54978;BME280;40873;47.522;19.106;2023-09-07T05:43:30;101108.03;;;16.57;100.00
54978;BME280;40873;47.522;19.106;2023-09-07T05:45:58;101115.31;;;16.66;100.00
54978;BME280;40873;47.522;19.106;2023-09-07T05:48:29;101113.72;;;16.77;100.00
54978;BME280;40873;47.522;19.106;2023-09-07T05:50:57;101115.69;;;16.86;100.00
54978;BME280;40873;47.522;19.106;2023-09-07T05:53:27;101114.28;;;16.93;100.00
54978;BME280;40873;47.522;19.106;2023-09-07T05:55:57;101108.81;;;16.94;100.00
54978;BME280;40873;47.522;19.106;2023-09-07T05:58:24;101108.75;;;17.07;100.00
54978;BME280;40873;47.522;19.106;2023-09-07T06:00:51;101109.88;;;17.16;100.00
54978;BME280;40873;47.522;19.106;2023-09-07T06:03:18;101112.81;;;17.24;100.00
54978;BME280;40873;47.522;19.106;2023-09-07T06:05:45;101118.19;;;17.35;100.00
54978;BME280;40873;47.522;19.106;2023-09-07T06:08:13;101121.09;;;17.43;100.00
54978;BME280;40873;47.522;19.106;2023-09-07T06:10:40;101124.88;;;17.52;100.00
54978;BME280;40873;47.522;19.106;2023-09-07T06:13:07;101124.06;;;17.63;100.00
54978;BME280;40873;47.522;19.106;2023-09-07T06:15:34;101127.09;;;17.69;100.00
54978;BME280;40873;47.522;19.106;2023-09-07T06:18:01;101125.44;;;17.79;100.00
54978;BME280;40873;47.522;19.106;2023-09-07T06:20:31;101122.91;;;17.89;100.00
54978;BME280;40873;47.522;19.106;2023-09-07T06:22:58;101126.06;;;17.94;100.00
54978;BME280;40873;47.522;19.106;2023-09-07T06:25:25;101129.69;;;18.04;100.00
54978;BME280;40873;47.522;19.106;2023-09-07T06:27:54;101126.28;;;18.14;100.00
54978;BME280;40873;47.522;19.106;2023-09-07T06:30:21;101123.84;;;18.22;100.00
54978;BME280;40873;47.522;19.106;2023-09-07T06:32:48;101128.34;;;18.32;100.00
54978;BME280;40873;47.522;19.106;2023-09-07T06:35:19;101127.34;;;18.45;100.00
54978;BME280;40873;47.522;19.106;2023-09-07T06:37:46;101131.72;;;18.57;100.00
54978;BME280;40873;47.522;19.106;2023-09-07T06:40:13;101137.38;;;18.63;100.00
54978;BME280;40873;47.522;19.106;2023-09-07T06:42:42;101132.19;;;18.73;100.00
54978;BME280;40873;47.522;19.106;2023-09-07T06:45:10;101126.91;;;18.83;100.00
54978;BME280;40873;47.522;19.106;2023-09-07T06:47:38;101132.03;;;18.86;100.00
54978;BME280;40873;47.522;19.106;2023-09-07T06:50:07;101133.91;;;18.95;99.29
54978;BME280;40873;47.522;19.106;2023-09-07T06:52:34;101134.97;;;19.04;98.89
54978;BME280;40873;47.522;19.106;2023-09-07T06:55:01;101132.41;;;19.13;100.00
54978;BME280;40873;47.522;19.106;2023-09-07T06:57:29;101138.09;;;19.20;98.04
54978;BME280;40873;47.522;19.106;2023-09-07T06:59:56;101133.63;;;19.30;97.35
54978;BME280;40873;47.522;19.106;2023-09-07T07:02:23;101136.38;;;19.40;97.92
54978;BME280;40873;47.522;19.106;2023-09-07T07:04:51;101140.69;;;19.52;96.20
54978;BME280;40873;47.522;19.106;2023-09-07T07:07:18;101134.19;;;19.66;95.69
54978;BME280;40873;47.522;19.106;2023-09-07T07:09:46;101136.09;;;19.75;96.36
54978;BME280;40873;47.522;19.106;2023-09-07T07:12:13;101142.31;;;19.85;94.57
54978;BME280;40873;47.522;19.106;2023-09-07T07:14:40;101142.25;;;19.96;94.31
54978;BME280;40873;47.522;19.106;2023-09-07T07:17:08;101144.38;;;20.03;93.79
54978;BME280;40873;47.522;19.106;2023-09-07T07:19:35;101140.63;;;20.15;94.22
54978;BME280;40873;47.522;19.106;2023-09-07T07:22:03;101145.88;;;20.26;94.69
54978;BME280;40873;47.522;19.106;2023-09-07T07:24:30;101145.91;;;20.36;92.36
54978;BME280;40873;47.522;19.106;2023-09-07T07:26:59;101148.81;;;20.53;91.83
54978;BME280;40873;47.522;19.106;2023-09-07T07:29:27;101150.97;;;20.69;91.89
54978;BME280;40873;47.522;19.106;2023-09-07T07:31:57;101145.06;;;20.75;93.57
54978;BME280;40873;47.522;19.106;2023-09-07T07:34:25;101142.50;;;20.84;90.12
54978;BME280;40873;47.522;19.106;2023-09-07T07:36:52;101150.84;;;21.00;88.90
54978;BME280;40873;47.522;19.106;2023-09-07T07:39:19;101141.81;;;21.20;87.41
54978;BME280;40873;47.522;19.106;2023-09-07T07:41:46;101143.66;;;21.39;83.44
54978;BME280;40873;47.522;19.106;2023-09-07T07:44:13;101140.66;;;21.61;85.30
54978;BME280;40873;47.522;19.106;2023-09-07T07:46:40;101144.84;;;21.83;84.36
54978;BME280;40873;47.522;19.106;2023-09-07T07:49:07;101145.78;;;22.02;85.33
54978;BME280;40873;47.522;19.106;2023-09-07T07:51:34;101143.88;;;22.22;84.87
54978;BME280;40873;47.522;19.106;2023-09-07T07:54:01;101135.72;;;22.41;82.62
54978;BME280;40873;47.522;19.106;2023-09-07T07:56:28;101147.22;;;22.61;79.70
54978;BME280;40873;47.522;19.106;2023-09-07T07:58:59;101151.25;;;22.75;84.67
54978;BME280;40873;47.522;19.106;2023-09-07T08:01:26;101135.69;;;22.96;82.75
54978;BME280;40873;47.522;19.106;2023-09-07T08:03:54;101139.81;;;23.08;79.91
54978;BME280;40873;47.522;19.106;2023-09-07T08:06:21;101143.88;;;23.30;77.45
54978;BME280;40873;47.522;19.106;2023-09-07T08:08:49;101135.38;;;23.43;75.68
54978;BME280;40873;47.522;19.106;2023-09-07T08:11:15;101136.97;;;23.53;73.11
54978;BME280;40873;47.522;19.106;2023-09-07T08:13:43;101135.66;;;23.75;76.16
54978;BME280;40873;47.522;19.106;2023-09-07T08:16:13;101127.94;;;23.81;73.74
54978;BME280;40873;47.522;19.106;2023-09-07T08:18:40;101129.91;;;24.04;72.88
54978;BME280;40873;47.522;19.106;2023-09-07T08:21:08;101139.78;;;24.22;72.62
54978;BME280;40873;47.522;19.106;2023-09-07T08:23:36;101132.63;;;24.47;68.76
54978;BME280;40873;47.522;19.106;2023-09-07T08:26:03;101134.50;;;24.54;70.85
54978;BME280;40873;47.522;19.106;2023-09-07T08:28:32;101130.97;;;24.54;69.45
54978;BME280;40873;47.522;19.106;2023-09-07T08:31:00;101134.38;;;24.56;69.79
54978;BME280;40873;47.522;19.106;2023-09-07T08:33:27;101126.31;;;24.88;70.08
54978;BME280;40873;47.522;19.106;2023-09-07T08:36:02;101123.47;;;24.98;66.47
54978;BME280;40873;47.522;19.106;2023-09-07T08:38:31;101124.16;;;25.17;65.51
54978;BME280;40873;47.522;19.106;2023-09-07T08:41:01;101117.09;;;25.40;66.55
54978;BME280;40873;47.522;19.106;2023-09-07T08:43:44;101109.47;;;25.60;64.25
54978;BME280;40873;47.522;19.106;2023-09-07T08:46:18;101107.91;;;25.65;63.05
54978;BME280;40873;47.522;19.106;2023-09-07T08:48:49;101109.59;;;25.58;62.92
54978;BME280;40873;47.522;19.106;2023-09-07T08:51:18;101101.34;;;25.52;67.47
54978;BME280;40873;47.522;19.106;2023-09-07T08:53:46;101109.09;;;25.63;61.18
54978;BME280;40873;47.522;19.106;2023-09-07T08:56:14;101106.75;;;25.68;61.77
54978;BME280;40873;47.522;19.106;2023-09-07T08:58:42;101100.50;;;25.76;60.23
54978;BME280;40873;47.522;19.106;2023-09-07T09:01:12;101099.56;;;26.08;59.69
54978;BME280;40873;47.522;19.106;2023-09-07T09:03:43;101095.22;;;26.30;59.29
54978;BME280;40873;47.522;19.106;2023-09-07T09:06:11;101106.94;;;26.53;61.31
54978;BME280;40873;47.522;19.106;2023-09-07T09:08:54;101103.13;;;26.70;55.87
54978;BME280;40873;47.522;19.106;2023-09-07T09:11:22;101102.28;;;26.93;56.83
54978;BME280;40873;47.522;19.106;2023-09-07T09:13:52;101099.78;;;26.91;57.79
54978;BME280;40873;47.522;19.106;2023-09-07T09:16:21;101092.03;;;27.03;57.93
54978;BME280;40873;47.522;19.106;2023-09-07T09:18:56;101089.63;;;27.31;53.02
54978;BME280;40873;47.522;19.106;2023-09-07T09:21:27;101086.56;;;27.34;53.80
54978;BME280;40873;47.522;19.106;2023-09-07T09:23:56;101091.81;;;27.50;49.61
54978;BME280;40873;47.522;19.106;2023-09-07T09:26:23;101084.63;;;27.57;51.69
54978;BME280;40873;47.522;19.106;2023-09-07T09:28:55;101091.25;;;27.55;49.24
54978;BME280;40873;47.522;19.106;2023-09-07T09:31:23;101083.38;;;27.45;48.13
54978;BME280;40873;47.522;19.106;2023-09-07T09:33:51;101085.75;;;27.48;46.65
54978;BME280;40873;47.522;19.106;2023-09-07T09:36:20;101082.97;;;27.86;49.34
54978;BME280;40873;47.522;19.106;2023-09-07T09:38:51;101076.25;;;27.97;47.23
54978;BME280;40873;47.522;19.106;2023-09-07T09:41:20;101087.00;;;27.90;48.14
54978;BME280;40873;47.522;19.106;2023-09-07T09:43:48;101084.81;;;28.15;45.69
54978;BME280;40873;47.522;19.106;2023-09-07T09:46:19;101081.53;;;28.20;44.78
54978;BME280;40873;47.522;19.106;2023-09-07T09:48:47;101073.38;;;28.20;45.56
54978;BME280;40873;47.522;19.106;2023-09-07T09:51:14;101076.25;;;28.48;46.90
54978;BME280;40873;47.522;19.106;2023-09-07T09:53:44;101078.19;;;28.54;45.89
54978;BME280;40873;47.522;19.106;2023-09-07T09:56:12;101075.66;;;28.31;44.91
54978;BME280;40873;47.522;19.106;2023-09-07T09:58:40;101070.56;;;28.28;46.66
54978;BME280;40873;47.522;19.106;2023-09-07T10:01:07;101077.56;;;28.37;44.08
54978;BME280;40873;47.522;19.106;2023-09-07T10:03:43;101068.66;;;28.79;45.96
54978;BME280;40873;47.522;19.106;2023-09-07T10:06:24;101065.97;;;28.64;45.03
54978;BME280;40873;47.522;19.106;2023-09-07T10:08:58;101064.22;;;28.78;43.54
54978;BME280;40873;47.522;19.106;2023-09-07T10:11:31;101069.88;;;28.77;42.94
54978;BME280;40873;47.522;19.106;2023-09-07T10:14:02;101066.63;;;28.88;45.17
54978;BME280;40873;47.522;19.106;2023-09-07T10:16:50;101067.47;;;28.88;42.56
54978;BME280;40873;47.522;19.106;2023-09-07T10:19:24;101072.38;;;28.78;43.22
54978;BME280;40873;47.522;19.106;2023-09-07T10:21:54;101059.44;;;29.23;39.69
54978;BME280;40873;47.522;19.106;2023-09-07T10:24:34;101070.63;;;29.41;41.26
54978;BME280;40873;47.522;19.106;2023-09-07T10:27:07;101067.84;;;29.28;40.78
54978;BME280;40873;47.522;19.106;2023-09-07T10:29:46;101059.03;;;29.26;41.28
54978;BME280;40873;47.522;19.106;2023-09-07T10:32:22;101059.81;;;29.20;39.66
54978;BME280;40873;47.522;19.106;2023-09-07T10:34:50;101060.53;;;29.29;37.48
54978;BME280;40873;47.522;19.106;2023-09-07T10:37:18;101051.75;;;29.33;38.92
54978;BME280;40873;47.522;19.106;2023-09-07T10:39:46;101057.25;;;29.40;38.67
54978;BME280;40873;47.522;19.106;2023-09-07T10:42:26;101054.44;;;29.27;38.07
54978;BME280;40873;47.522;19.106;2023-09-07T10:44:53;101051.91;;;29.25;37.53
54978;BME280;40873;47.522;19.106;2023-09-07T10:47:21;101049.66;;;29.57;37.69
54978;BME280;40873;47.522;19.106;2023-09-07T10:49:48;101043.56;;;29.96;35.52
54978;BME280;40873;47.522;19.106;2023-09-07T10:52:16;101046.44;;;30.22;34.79
54978;BME280;40873;47.522;19.106;2023-09-07T10:54:55;101039.94;;;29.82;35.52
54978;BME280;40873;47.522;19.106;2023-09-07T10:57:23;101038.28;;;29.81;36.96
54978;BME280;40873;47.522;19.106;2023-09-07T10:59:50;101038.41;;;30.08;37.02
54978;BME280;40873;47.522;19.106;2023-09-07T11:02:17;101039.75;;;30.38;35.55
54978;BME280;40873;47.522;19.106;2023-09-07T11:04:44;101038.56;;;30.47;35.91
54978;BME280;40873;47.522;19.106;2023-09-07T11:07:12;101035.47;;;30.70;35.83
54978;BME280;40873;47.522;19.106;2023-09-07T11:09:43;101033.13;;;30.61;36.02
54978;BME280;40873;47.522;19.106;2023-09-07T11:12:14;101027.66;;;30.54;35.79
54978;BME280;40873;47.522;19.106;2023-09-07T11:14:47;101024.38;;;30.85;35.46
54978;BME280;40873;47.522;19.106;2023-09-07T11:17:16;101022.69;;;31.10;33.31
54978;BME280;40873;47.522;19.106;2023-09-07T11:19:43;101023.53;;;31.24;33.82
54978;BME280;40873;47.522;19.106;2023-09-07T11:22:11;101019.34;;;30.89;34.22
54978;BME280;40873;47.522;19.106;2023-09-07T11:24:38;101018.69;;;30.87;34.48
54978;BME280;40873;47.522;19.106;2023-09-07T11:27:08;101021.44;;;30.93;34.56
54978;BME280;40873;47.522;19.106;2023-09-07T11:29:35;101012.00;;;31.09;35.07
54978;BME280;40873;47.522;19.106;2023-09-07T11:32:10;101019.34;;;30.95;35.79
54978;BME280;40873;47.522;19.106;2023-09-07T11:34:48;101011.13;;;31.08;32.98
54978;BME280;40873;47.522;19.106;2023-09-07T11:37:23;101005.50;;;31.30;33.43
54978;BME280;40873;47.522;19.106;2023-09-07T11:39:52;101000.56;;;31.78;34.86
54978;BME280;40873;47.522;19.106;2023-09-07T11:42:22;100991.13;;;31.61;33.14
54978;BME280;40873;47.522;19.106;2023-09-07T11:44:49;100999.16;;;31.43;33.77
54978;BME280;40873;47.522;19.106;2023-09-07T11:47:16;100995.16;;;31.58;33.71
54978;BME280;40873;47.522;19.106;2023-09-07T11:49:43;100986.31;;;31.63;33.86
54978;BME280;40873;47.522;19.106;2023-09-07T11:52:10;100989.47;;;32.11;34.86
54978;BME280;40873;47.522;19.106;2023-09-07T11:54:37;100998.31;;;32.07;32.61
54978;BME280;40873;47.522;19.106;2023-09-07T11:57:05;100985.44;;;31.69;33.07
54978;BME280;40873;47.522;19.106;2023-09-07T11:59:32;100991.53;;;31.71;32.44
54978;BME280;40873;47.522;19.106;2023-09-07T12:02:16;100988.84;;;31.64;32.05
54978;BME280;40873;47.522;19.106;2023-09-07T12:04:44;100992.28;;;31.91;31.95
54978;BME280;40873;47.522;19.106;2023-09-07T12:07:11;100987.72;;;32.24;31.54
54978;BME280;40873;47.522;19.106;2023-09-07T12:09:38;100980.22;;;32.51;31.47
54978;BME280;40873;47.522;19.106;2023-09-07T12:12:06;100987.31;;;32.83;30.95
54978;BME280;40873;47.522;19.106;2023-09-07T12:14:36;100992.75;;;32.58;30.54
54978;BME280;40873;47.522;19.106;2023-09-07T12:17:03;100970.69;;;32.60;30.90
54978;BME280;40873;47.522;19.106;2023-09-07T12:19:30;100983.31;;;32.86;31.05
54978;BME280;40873;47.522;19.106;2023-09-07T12:22:00;100980.13;;;33.32;29.93
54978;BME280;40873;47.522;19.106;2023-09-07T12:24:28;100984.22;;;33.23;27.69
54978;BME280;40873;47.522;19.106;2023-09-07T12:26:55;100972.03;;;33.44;27.45
54978;BME280;40873;47.522;19.106;2023-09-07T12:29:22;100976.47;;;33.93;27.93
54978;BME280;40873;47.522;19.106;2023-09-07T12:31:50;100974.09;;;34.57;27.17
54978;BME280;40873;47.522;19.106;2023-09-07T12:34:17;100974.84;;;35.46;26.59
54978;BME280;40873;47.522;19.106;2023-09-07T12:36:47;100976.28;;;36.80;25.18
54978;BME280;40873;47.522;19.106;2023-09-07T12:39:15;100966.44;;;37.39;23.73
54978;BME280;40873;47.522;19.106;2023-09-07T12:41:43;100967.63;;;38.41;22.92
54978;BME280;40873;47.522;19.106;2023-09-07T12:44:09;100972.25;;;39.05;22.04